createdAt,value
2022-10-09T00:00:00.973Z,1011.4
2022-10-09T00:01:03.588Z,1011.4
2022-10-09T00:02:01.010Z,1011.4
2022-10-09T00:03:01.761Z,1011.5
2022-10-09T00:04:01.025Z,1011.5
2022-10-09T00:05:01.132Z,1011.5
2022-10-09T00:06:02.494Z,1011.5
2022-10-09T00:07:00.984Z,1011.5
2022-10-09T00:08:01.323Z,1011.5
2022-10-09T00:09:03.173Z,1011.5
2022-10-09T00:10:01.222Z,1011.5
2022-10-09T00:11:06.094Z,1011.5
2022-10-09T00:12:01.258Z,1011.5
2022-10-09T00:13:01.239Z,1011.5
2022-10-09T00:14:02.225Z,1011.5
2022-10-09T00:15:01.238Z,1011.5
2022-10-09T00:16:03.806Z,1011.5
2022-10-09T00:17:01.476Z,1011.5
2022-10-09T00:18:01.244Z,1011.5
2022-10-09T00:19:02.314Z,1011.5
2022-10-09T00:20:01.306Z,1011.5
2022-10-09T00:21:01.668Z,1011.5
2022-10-09T00:22:00.931Z,1011.5
2022-10-09T00:23:01.246Z,1011.6
2022-10-09T00:24:03.201Z,1011.5
2022-10-09T00:25:01.102Z,1011.6
2022-10-09T00:26:01.704Z,1011.6
2022-10-09T00:27:01.255Z,1011.5
2022-10-09T00:28:02.666Z,1011.5
2022-10-09T00:29:01.550Z,1011.6
2022-10-09T00:30:01.327Z,1011.6
2022-10-09T00:31:03.889Z,1011.6
2022-10-09T00:32:00.943Z,1011.6
2022-10-09T00:33:00.947Z,1011.6
2022-10-09T00:34:00.923Z,1011.6
2022-10-09T00:35:00.961Z,1011.6
2022-10-09T00:36:02.093Z,1011.6
2022-10-09T00:37:01.471Z,1011.6
2022-10-09T00:38:00.952Z,1011.6
2022-10-09T00:39:01.567Z,1011.6
2022-10-09T00:40:01.231Z,1011.6
2022-10-09T00:41:01.460Z,1011.6
2022-10-09T00:42:00.966Z,1011.6
2022-10-09T00:43:02.097Z,1011.7
2022-10-09T00:44:03.515Z,1011.6
2022-10-09T00:45:03.193Z,1011.6
2022-10-09T00:46:01.778Z,1011.7
2022-10-09T00:47:01.253Z,1011.7
2022-10-09T00:48:05.670Z,1011.7
2022-10-09T00:49:09.027Z,1011.7
2022-10-09T00:50:06.757Z,1011.7
2022-10-09T00:51:02.007Z,1011.7
2022-10-09T00:52:05.241Z,1011.7
2022-10-09T00:53:01.595Z,1011.7
2022-10-09T00:54:04.159Z,1011.7
2022-10-09T00:55:03.420Z,1011.7
2022-10-09T00:56:01.058Z,1011.7
2022-10-09T00:57:01.719Z,1011.8
2022-10-09T00:58:01.907Z,1011.8
2022-10-09T00:59:02.413Z,1011.8
2022-10-09T01:00:04.629Z,1011.8
2022-10-09T01:01:01.306Z,1011.8
2022-10-09T01:02:01.514Z,1011.8
2022-10-09T01:03:01.313Z,1011.8
2022-10-09T01:04:01.239Z,1011.8
2022-10-09T01:05:00.932Z,1011.8
2022-10-09T01:06:11.315Z,1011.9
2022-10-09T01:07:15.447Z,1011.9
2022-10-09T01:08:09.583Z,1011.9
2022-10-09T01:09:06.899Z,1011.9
2022-10-09T01:10:07.507Z,1011.9
2022-10-09T01:11:08.746Z,1011.9
2022-10-09T01:12:09.218Z,1011.9
2022-10-09T01:13:08.008Z,1011.9
2022-10-09T01:14:08.897Z,1011.9
2022-10-09T01:15:08.818Z,1011.9
2022-10-09T01:16:05.517Z,1011.9
2022-10-09T01:17:10.184Z,1011.9
2022-10-09T01:18:08.186Z,1011.9
2022-10-09T01:19:15.333Z,1011.9
2022-10-09T01:20:15.612Z,1012.0
2022-10-09T01:21:07.935Z,1011.9
2022-10-09T01:22:19.679Z,1011.9
2022-10-09T01:23:14.114Z,1011.9
2022-10-09T01:24:20.131Z,1012.0
2022-10-09T01:25:05.199Z,1012.0
2022-10-09T01:26:13.693Z,1012.0
2022-10-09T01:27:13.753Z,1012.0
2022-10-09T01:28:04.157Z,1012.0
2022-10-09T01:29:05.356Z,1012.0
2022-10-09T01:30:07.151Z,1012.0
2022-10-09T01:31:05.522Z,1012.0
2022-10-09T01:32:03.004Z,1012.0
2022-10-09T01:33:02.362Z,1012.0
2022-10-09T01:34:02.837Z,1012.0
2022-10-09T01:35:01.924Z,1012.0
2022-10-09T01:36:03.639Z,1012.1
2022-10-09T01:37:02.101Z,1012.0
2022-10-09T01:38:03.629Z,1012.1
2022-10-09T01:39:04.784Z,1012.1
2022-10-09T01:40:02.532Z,1012.1
2022-10-09T01:41:03.195Z,1012.1
2022-10-09T01:42:01.877Z,1012.1
2022-10-09T01:43:01.827Z,1012.1
2022-10-09T01:44:01.342Z,1012.1
2022-10-09T01:45:01.371Z,1012.1
2022-10-09T01:46:19.600Z,1012.1
2022-10-09T01:47:01.728Z,1012.1
2022-10-09T01:48:02.497Z,1012.1
2022-10-09T01:49:10.952Z,1012.1
2022-10-09T01:50:08.444Z,1012.1
2022-10-09T01:51:04.138Z,1012.2
2022-10-09T01:52:06.202Z,1012.1
2022-10-09T01:53:05.722Z,1012.2
2022-10-09T01:54:06.341Z,1012.1
2022-10-09T01:55:12.881Z,1012.2
2022-10-09T01:56:06.929Z,1012.2
2022-10-09T01:57:04.197Z,1012.2
2022-10-09T01:58:06.452Z,1012.2
2022-10-09T01:59:12.303Z,1012.2
2022-10-09T02:00:06.506Z,1012.2
2022-10-09T02:01:06.896Z,1012.2
2022-10-09T02:02:01.621Z,1012.3
2022-10-09T02:03:04.048Z,1012.2
2022-10-09T02:04:04.785Z,1012.2
2022-10-09T02:05:01.092Z,1012.3
2022-10-09T02:06:05.080Z,1012.3
2022-10-09T02:07:02.751Z,1012.2
2022-10-09T02:08:01.301Z,1012.2
2022-10-09T02:09:07.278Z,1012.3
2022-10-09T02:10:05.074Z,1012.3
2022-10-09T02:11:01.939Z,1012.3
2022-10-09T02:12:05.768Z,1012.3
2022-10-09T02:13:01.138Z,1012.3
2022-10-09T02:14:01.783Z,1012.3
2022-10-09T02:15:01.293Z,1012.4
2022-10-09T02:16:11.970Z,1012.3
2022-10-09T02:17:07.734Z,1012.3
2022-10-09T02:18:08.232Z,1012.4
2022-10-09T02:19:07.021Z,1012.5
2022-10-09T02:20:05.663Z,1012.4
2022-10-09T02:21:07.127Z,1012.4
2022-10-09T02:22:07.334Z,1012.4
2022-10-09T02:23:05.493Z,1012.4
2022-10-09T02:24:03.373Z,1012.4
2022-10-09T02:25:05.256Z,1012.4
2022-10-09T02:26:01.002Z,1012.4
2022-10-09T02:27:02.095Z,1012.4
2022-10-09T02:28:02.822Z,1012.5
2022-10-09T02:29:02.158Z,1012.5
2022-10-09T02:30:01.898Z,1012.4
2022-10-09T02:31:05.143Z,1012.4
2022-10-09T02:32:01.222Z,1012.4
2022-10-09T02:33:01.247Z,1012.4
2022-10-09T02:34:03.673Z,1012.4
2022-10-09T02:35:01.451Z,1012.5
2022-10-09T02:36:01.656Z,1012.4
2022-10-09T02:37:01.029Z,1012.5
2022-10-09T02:38:01.254Z,1012.5
2022-10-09T02:39:03.007Z,1012.5
2022-10-09T02:40:01.466Z,1012.5
2022-10-09T02:41:01.693Z,1012.5
2022-10-09T02:42:01.408Z,1012.5
2022-10-09T02:43:00.927Z,1012.5
2022-10-09T02:44:01.695Z,1012.5
2022-10-09T02:45:00.957Z,1012.5
2022-10-09T02:46:00.998Z,1012.5
2022-10-09T02:47:01.248Z,1012.5
2022-10-09T02:48:00.925Z,1012.4
2022-10-09T02:49:01.396Z,1012.4
2022-10-09T02:50:00.945Z,1012.4
2022-10-09T02:51:01.612Z,1012.4
2022-10-09T02:52:01.329Z,1012.4
2022-10-09T02:53:00.925Z,1012.4
2022-10-09T02:54:01.061Z,1012.4
2022-10-09T02:55:01.245Z,1012.4
2022-10-09T02:56:01.312Z,1012.4
2022-10-09T02:57:01.249Z,1012.4
2022-10-09T02:58:00.954Z,1012.3
2022-10-09T02:59:01.308Z,1012.3
2022-10-09T03:00:01.242Z,1012.3
2022-10-09T03:01:01.471Z,1012.3
2022-10-09T03:02:01.619Z,1012.3
2022-10-09T03:03:01.230Z,1012.3
2022-10-09T03:04:01.420Z,1012.3
2022-10-09T03:05:01.237Z,1012.3
2022-10-09T03:06:02.276Z,1012.3
2022-10-09T03:07:01.245Z,1012.3
2022-10-09T03:08:00.945Z,1012.3
2022-10-09T03:09:01.592Z,1012.3
2022-10-09T03:10:00.955Z,1012.3
2022-10-09T03:11:01.388Z,1012.3
2022-10-09T03:12:00.940Z,1012.3
2022-10-09T03:13:01.037Z,1012.3
2022-10-09T03:14:01.270Z,1012.3
2022-10-09T03:15:00.934Z,1012.3
2022-10-09T03:16:03.479Z,1012.3
2022-10-09T03:17:00.936Z,1012.3
2022-10-09T03:18:00.985Z,1012.3
2022-10-09T03:19:00.936Z,1012.3
2022-10-09T03:20:01.306Z,1012.4
2022-10-09T03:21:04.158Z,1012.4
2022-10-09T03:22:00.914Z,1012.3
2022-10-09T03:23:00.930Z,1012.3
2022-10-09T03:24:01.528Z,1012.3
2022-10-09T03:25:00.946Z,1012.3
2022-10-09T03:26:03.773Z,1012.3
2022-10-09T03:27:01.225Z,1012.2
2022-10-09T03:28:01.252Z,1012.3
2022-10-09T03:29:01.245Z,1012.3
2022-10-09T03:30:01.250Z,1012.2
2022-10-09T03:31:01.710Z,1012.2
2022-10-09T03:32:00.959Z,1012.2
2022-10-09T03:33:01.252Z,1012.2
2022-10-09T03:34:00.930Z,1012.2
2022-10-09T03:35:01.397Z,1012.2
2022-10-09T03:36:02.140Z,1012.2
2022-10-09T03:37:00.937Z,1012.2
2022-10-09T03:38:01.276Z,1012.2
2022-10-09T03:39:00.959Z,1012.2
2022-10-09T03:40:01.247Z,1012.2
2022-10-09T03:41:02.671Z,1012.3
2022-10-09T03:42:00.935Z,1012.3
2022-10-09T03:43:00.925Z,1012.3
2022-10-09T03:44:01.376Z,1012.3
2022-10-09T03:45:01.264Z,1012.3
2022-10-09T03:46:05.858Z,1012.2
2022-10-09T03:47:00.976Z,1012.2
2022-10-09T03:48:00.944Z,1012.2
2022-10-09T03:49:01.238Z,1012.2
2022-10-09T03:50:00.939Z,1012.3
2022-10-09T03:51:01.429Z,1012.3
2022-10-09T03:52:00.934Z,1012.3
2022-10-09T03:53:01.216Z,1012.3
2022-10-09T03:54:01.042Z,1012.3
2022-10-09T03:55:01.287Z,1012.3
2022-10-09T03:56:00.963Z,1012.4
2022-10-09T03:57:01.418Z,1012.4
2022-10-09T03:58:01.392Z,1012.3
2022-10-09T03:59:01.241Z,1012.4
2022-10-09T04:00:01.263Z,1012.4
2022-10-09T04:01:01.420Z,1012.4
2022-10-09T04:02:00.955Z,1012.4
2022-10-09T04:03:01.567Z,1012.4
2022-10-09T04:04:01.568Z,1012.4
2022-10-09T04:05:01.229Z,1012.4
2022-10-09T04:06:01.225Z,1012.4
2022-10-09T04:07:01.251Z,1012.3
2022-10-09T04:08:01.379Z,1012.3
2022-10-09T04:09:01.328Z,1012.3
2022-10-09T04:10:00.945Z,1012.3
2022-10-09T04:11:01.228Z,1012.3
2022-10-09T04:12:01.276Z,1012.3
2022-10-09T04:13:01.240Z,1012.3
2022-10-09T04:14:02.072Z,1012.2
2022-10-09T04:15:01.259Z,1012.3
2022-10-09T04:16:01.169Z,1012.3
2022-10-09T04:17:00.949Z,1012.4
2022-10-09T04:18:01.220Z,1012.4
2022-10-09T04:19:01.736Z,1012.4
2022-10-09T04:20:00.971Z,1012.4
2022-10-09T04:21:01.251Z,1012.4
2022-10-09T04:22:01.520Z,1012.4
2022-10-09T04:23:00.954Z,1012.3
2022-10-09T04:24:00.940Z,1012.3
2022-10-09T04:25:00.958Z,1012.3
2022-10-09T04:26:01.465Z,1012.3
2022-10-09T04:27:01.281Z,1012.3
2022-10-09T04:28:00.955Z,1012.3
2022-10-09T04:29:01.246Z,1012.3
2022-10-09T04:30:01.206Z,1012.3
2022-10-09T04:31:01.307Z,1012.3
2022-10-09T04:32:01.272Z,1012.2
2022-10-09T04:33:00.996Z,1012.3
2022-10-09T04:34:00.958Z,1012.2
2022-10-09T04:35:01.252Z,1012.2
2022-10-09T04:36:01.233Z,1012.3
2022-10-09T04:37:01.212Z,1012.3
2022-10-09T04:38:01.265Z,1012.3
2022-10-09T04:39:01.285Z,1012.3
2022-10-09T04:40:00.933Z,1012.3
2022-10-09T04:41:04.436Z,1012.3
2022-10-09T04:42:01.250Z,1012.2
2022-10-09T04:43:00.918Z,1012.3
2022-10-09T04:44:01.257Z,1012.2
2022-10-09T04:45:00.981Z,1012.3
2022-10-09T04:46:04.846Z,1012.2
2022-10-09T04:47:01.220Z,1012.3
2022-10-09T04:48:01.247Z,1012.3
2022-10-09T04:49:01.356Z,1012.2
2022-10-09T04:50:01.195Z,1012.2
2022-10-09T04:51:04.258Z,1012.2
2022-10-09T04:52:01.186Z,1012.2
2022-10-09T04:53:00.917Z,1012.2
2022-10-09T04:54:01.009Z,1012.2
2022-10-09T04:55:01.211Z,1012.2
2022-10-09T04:56:02.243Z,1012.2
2022-10-09T04:57:00.928Z,1012.2
2022-10-09T04:58:00.932Z,1012.2
2022-10-09T04:59:00.947Z,1012.2
2022-10-09T05:00:01.290Z,1012.2
2022-10-09T05:01:06.099Z,1012.1
2022-10-09T05:02:01.292Z,1012.2
2022-10-09T05:03:01.218Z,1012.2
2022-10-09T05:04:01.218Z,1012.2
2022-10-09T05:05:00.933Z,1012.1
2022-10-09T05:06:01.777Z,1012.1
2022-10-09T05:07:01.015Z,1012.2
2022-10-09T05:08:01.039Z,1012.2
2022-10-09T05:09:00.935Z,1012.2
2022-10-09T05:10:00.962Z,1012.2
2022-10-09T05:11:02.029Z,1012.2
2022-10-09T05:12:00.933Z,1012.2
2022-10-09T05:13:00.974Z,1012.2
2022-10-09T05:14:01.207Z,1012.3
2022-10-09T05:15:01.250Z,1012.2
2022-10-09T05:16:01.500Z,1012.3
2022-10-09T05:17:13.490Z,1012.3
2022-10-09T05:18:00.969Z,1012.3
2022-10-09T05:19:01.985Z,1012.2
2022-10-09T05:20:00.962Z,1012.2
2022-10-09T05:21:03.248Z,1012.2
2022-10-09T05:22:01.256Z,1012.2
2022-10-09T05:23:00.925Z,1012.2
2022-10-09T05:24:00.928Z,1012.2
2022-10-09T05:25:01.633Z,1012.3
2022-10-09T05:26:03.569Z,1012.2
2022-10-09T05:27:00.926Z,1012.3
2022-10-09T05:28:00.933Z,1012.2
2022-10-09T05:29:00.918Z,1012.3
2022-10-09T05:30:01.273Z,1012.3
2022-10-09T05:31:02.458Z,1012.3
2022-10-09T05:32:01.328Z,1012.3
2022-10-09T05:33:01.263Z,1012.3
2022-10-09T05:34:00.940Z,1012.3
2022-10-09T05:35:01.003Z,1012.2
2022-10-09T05:36:04.089Z,1012.3
2022-10-09T05:37:01.403Z,1012.3
2022-10-09T05:38:01.229Z,1012.3
2022-10-09T05:39:00.924Z,1012.3
2022-10-09T05:40:00.925Z,1012.3
2022-10-09T05:41:03.293Z,1012.3
2022-10-09T05:42:01.321Z,1012.3
2022-10-09T05:43:00.925Z,1012.3
2022-10-09T05:44:02.696Z,1012.3
2022-10-09T05:45:01.225Z,1012.3
2022-10-09T05:46:06.290Z,1012.4
2022-10-09T05:47:01.414Z,1012.3
2022-10-09T05:48:00.922Z,1012.3
2022-10-09T05:49:02.742Z,1012.3
2022-10-09T05:50:00.980Z,1012.3
2022-10-09T05:51:10.646Z,1012.3
2022-10-09T05:52:00.928Z,1012.3
2022-10-09T05:53:01.223Z,1012.3
2022-10-09T05:54:02.395Z,1012.3
2022-10-09T05:55:01.230Z,1012.3
2022-10-09T05:56:10.147Z,1012.3
2022-10-09T05:57:00.939Z,1012.3
2022-10-09T05:58:01.561Z,1012.4
2022-10-09T05:59:03.478Z,1012.4
2022-10-09T06:00:01.212Z,1012.4
2022-10-09T06:01:01.148Z,1012.4
2022-10-09T06:02:01.028Z,1012.4
2022-10-09T06:03:00.928Z,1012.4
2022-10-09T06:04:02.519Z,1012.4
2022-10-09T06:05:00.943Z,1012.4
2022-10-09T06:06:01.978Z,1012.4
2022-10-09T06:07:01.246Z,1012.4
2022-10-09T06:08:00.927Z,1012.4
2022-10-09T06:09:01.215Z,1012.4
2022-10-09T06:10:00.962Z,1012.3
2022-10-09T06:11:09.293Z,1012.3
2022-10-09T06:12:01.286Z,1012.4
2022-10-09T06:13:00.937Z,1012.3
2022-10-09T06:14:03.348Z,1012.3
2022-10-09T06:15:01.238Z,1012.3
2022-10-09T06:16:01.273Z,1012.3
2022-10-09T06:17:01.288Z,1012.3
2022-10-09T06:18:01.229Z,1012.3
2022-10-09T06:19:02.696Z,1012.3
2022-10-09T06:20:01.312Z,1012.3
2022-10-09T06:21:01.393Z,1012.3
2022-10-09T06:22:00.946Z,1012.3
2022-10-09T06:23:01.246Z,1012.3
2022-10-09T06:24:02.692Z,1012.3
2022-10-09T06:25:01.230Z,1012.3
2022-10-09T06:26:04.020Z,1012.3
2022-10-09T06:27:00.927Z,1012.3
2022-10-09T06:28:00.946Z,1012.3
2022-10-09T06:29:01.894Z,1012.3
2022-10-09T06:30:00.930Z,1012.3
2022-10-09T06:31:03.636Z,1012.3
2022-10-09T06:32:00.931Z,1012.3
2022-10-09T06:33:00.946Z,1012.3
2022-10-09T06:34:02.445Z,1012.3
2022-10-09T06:35:00.926Z,1012.3
2022-10-09T06:36:09.814Z,1012.3
2022-10-09T06:37:01.225Z,1012.3
2022-10-09T06:38:00.954Z,1012.3
2022-10-09T06:39:03.375Z,1012.3
2022-10-09T06:40:00.961Z,1012.3
2022-10-09T06:41:01.294Z,1012.3
2022-10-09T06:42:01.129Z,1012.3
2022-10-09T06:43:01.447Z,1012.3
2022-10-09T06:44:03.612Z,1012.3
2022-10-09T06:45:00.929Z,1012.3
2022-10-09T06:46:03.586Z,1012.3
2022-10-09T06:47:01.230Z,1012.3
2022-10-09T06:48:00.931Z,1012.3
2022-10-09T06:49:01.990Z,1012.3
2022-10-09T06:50:00.945Z,1012.3
2022-10-09T06:51:01.688Z,1012.3
2022-10-09T06:52:01.227Z,1012.3
2022-10-09T06:53:01.476Z,1012.2
2022-10-09T06:54:04.310Z,1012.3
2022-10-09T06:55:01.285Z,1012.3
2022-10-09T06:56:01.400Z,1012.2
2022-10-09T06:57:01.090Z,1012.3
2022-10-09T06:58:00.934Z,1012.3
2022-10-09T06:59:02.963Z,1012.2
2022-10-09T07:00:00.982Z,1012.2
2022-10-09T07:01:02.978Z,1012.3
2022-10-09T07:02:01.131Z,1012.2
2022-10-09T07:03:01.007Z,1012.2
2022-10-09T07:04:03.554Z,1012.2
2022-10-09T07:05:00.932Z,1012.2
2022-10-09T07:06:10.642Z,1012.2
2022-10-09T07:07:00.947Z,1012.1
2022-10-09T07:08:00.931Z,1012.2
2022-10-09T07:09:04.373Z,1012.1
2022-10-09T07:10:01.226Z,1012.2
2022-10-09T07:11:07.183Z,1012.2
2022-10-09T07:12:00.936Z,1012.1
2022-10-09T07:13:01.238Z,1012.2
2022-10-09T07:14:02.781Z,1012.1
2022-10-09T07:15:01.382Z,1012.1
2022-10-09T07:16:04.690Z,1012.1
2022-10-09T07:17:01.248Z,1012.1
2022-10-09T07:18:02.222Z,1012.2
2022-10-09T07:19:02.840Z,1012.1
2022-10-09T07:20:00.925Z,1012.1
2022-10-09T07:21:01.265Z,1012.1
2022-10-09T07:22:01.227Z,1012.1
2022-10-09T07:23:00.933Z,1012.1
2022-10-09T07:24:01.967Z,1012.1
2022-10-09T07:25:01.333Z,1012.1
2022-10-09T07:26:08.021Z,1012.1
2022-10-09T07:27:00.932Z,1012.1
2022-10-09T07:28:01.218Z,1012.1
2022-10-09T07:29:02.729Z,1012.1
2022-10-09T07:30:01.318Z,1012.1
2022-10-09T07:31:02.141Z,1012.1
2022-10-09T07:32:00.938Z,1012.1
2022-10-09T07:33:01.224Z,1012.1
2022-10-09T07:34:01.586Z,1012.1
2022-10-09T07:35:01.325Z,1012.1
2022-10-09T07:36:03.423Z,1012.1
2022-10-09T07:37:01.669Z,1012.1
2022-10-09T07:38:00.921Z,1012.1
2022-10-09T07:39:02.766Z,1012.1
2022-10-09T07:40:01.267Z,1012.1
2022-10-09T07:41:03.491Z,1012.0
2022-10-09T07:42:01.307Z,1012.1
2022-10-09T07:43:01.204Z,1012.1
2022-10-09T07:44:01.563Z,1012.1
2022-10-09T07:45:01.228Z,1012.1
2022-10-09T07:46:02.479Z,1012.1
2022-10-09T07:47:00.966Z,1012.1
2022-10-09T07:48:01.137Z,1012.2
2022-10-09T07:49:01.311Z,1012.2
2022-10-09T07:50:00.936Z,1012.1
2022-10-09T07:51:07.718Z,1012.2
2022-10-09T07:52:00.932Z,1012.1
2022-10-09T07:53:00.954Z,1012.2
2022-10-09T07:54:01.537Z,1012.1
2022-10-09T07:55:01.058Z,1012.1
2022-10-09T07:56:01.243Z,1012.1
2022-10-09T07:57:01.256Z,1012.2
2022-10-09T07:58:00.958Z,1012.1
2022-10-09T07:59:03.656Z,1012.2
2022-10-09T08:00:00.976Z,1012.1
2022-10-09T08:01:05.508Z,1012.1
2022-10-09T08:02:01.059Z,1012.1
2022-10-09T08:03:00.962Z,1012.1
2022-10-09T08:04:02.058Z,1012.1
2022-10-09T08:05:00.935Z,1012.1
2022-10-09T08:06:01.666Z,1012.1
2022-10-09T08:07:00.922Z,1012.1
2022-10-09T08:08:01.092Z,1012.2
2022-10-09T08:09:03.284Z,1012.2
2022-10-09T08:10:01.575Z,1012.1
2022-10-09T08:11:08.284Z,1012.2
2022-10-09T08:12:00.924Z,1012.1
2022-10-09T08:13:00.919Z,1012.1
2022-10-09T08:14:01.361Z,1012.1
2022-10-09T08:15:01.246Z,1012.1
2022-10-09T08:16:01.064Z,1012.1
2022-10-09T08:17:00.928Z,1012.1
2022-10-09T08:18:00.921Z,1012.1
2022-10-09T08:19:01.755Z,1012.0
2022-10-09T08:20:00.967Z,1012.1
2022-10-09T08:21:03.438Z,1012.1
2022-10-09T08:22:03.473Z,1012.1
2022-10-09T08:23:01.077Z,1012.1
2022-10-09T08:24:01.011Z,1012.0
2022-10-09T08:25:01.234Z,1012.0
2022-10-09T08:26:01.770Z,1012.0
2022-10-09T08:27:00.954Z,1012.0
2022-10-09T08:28:01.621Z,1012.0
2022-10-09T08:29:03.346Z,1012.0
2022-10-09T08:30:00.943Z,1012.1
2022-10-09T08:31:09.007Z,1012.0
2022-10-09T08:32:01.251Z,1012.0
2022-10-09T08:33:01.253Z,1012.0
2022-10-09T08:34:03.018Z,1012.0
2022-10-09T08:35:00.945Z,1012.0
2022-10-09T08:36:05.667Z,1011.9
2022-10-09T08:37:00.936Z,1011.9
2022-10-09T08:38:01.220Z,1011.9
2022-10-09T08:39:00.945Z,1011.9
2022-10-09T08:40:01.353Z,1012.0
2022-10-09T08:41:05.440Z,1011.9
2022-10-09T08:42:01.461Z,1011.9
2022-10-09T08:43:05.318Z,1011.9
2022-10-09T08:44:04.774Z,1011.9
2022-10-09T08:45:02.611Z,1011.9
2022-10-09T08:46:06.090Z,1011.9
2022-10-09T08:47:07.166Z,1011.9
2022-10-09T08:48:05.619Z,1011.8
2022-10-09T08:49:03.136Z,1011.8
2022-10-09T08:50:05.979Z,1011.8
2022-10-09T08:51:02.945Z,1011.8
2022-10-09T08:52:12.668Z,1011.8
2022-10-09T08:53:07.508Z,1011.8
2022-10-09T08:54:04.518Z,1011.8
2022-10-09T08:55:12.430Z,1011.8
2022-10-09T08:56:03.987Z,1011.9
2022-10-09T08:57:05.547Z,1011.8
2022-10-09T08:58:03.074Z,1011.9
2022-10-09T08:59:01.716Z,1011.9
2022-10-09T09:00:01.304Z,1011.8
2022-10-09T09:01:10.811Z,1011.8
2022-10-09T09:02:13.451Z,1011.9
2022-10-09T09:03:18.488Z,1011.8
2022-10-09T09:04:18.993Z,1011.8
2022-10-09T09:05:18.011Z,1011.9
2022-10-09T09:06:08.870Z,1011.8
2022-10-09T09:07:10.068Z,1011.8
2022-10-09T09:08:10.149Z,1011.8
2022-10-09T09:09:10.516Z,1011.8
2022-10-09T09:10:11.742Z,1011.8
2022-10-09T09:11:20.597Z,1011.8
2022-10-09T09:12:08.441Z,1011.7
2022-10-09T09:13:15.276Z,1011.8
2022-10-09T09:14:15.313Z,1011.8
2022-10-09T09:15:20.436Z,1011.7
2022-10-09T09:16:08.013Z,1011.8
2022-10-09T09:17:07.893Z,1011.7
2022-10-09T09:18:12.128Z,1011.7
2022-10-09T09:19:12.210Z,1011.7
2022-10-09T09:20:10.083Z,1011.7
2022-10-09T09:21:05.780Z,1011.7
2022-10-09T09:22:01.581Z,1011.7
2022-10-09T09:23:01.325Z,1011.7
2022-10-09T09:24:11.627Z,1011.7
2022-10-09T09:25:17.474Z,1011.7
2022-10-09T09:26:01.983Z,1011.6
2022-10-09T09:27:08.537Z,1011.6
2022-10-09T09:28:13.639Z,1011.6
2022-10-09T09:29:04.269Z,1011.6
2022-10-09T09:30:04.305Z,1011.6
2022-10-09T09:31:06.250Z,1011.5
2022-10-09T09:32:01.833Z,1011.5
2022-10-09T09:33:12.557Z,1011.5
2022-10-09T09:34:09.897Z,1011.5
2022-10-09T09:35:11.812Z,1011.5
2022-10-09T09:36:07.442Z,1011.5
2022-10-09T09:37:01.799Z,1011.4
2022-10-09T09:38:01.377Z,1011.4
2022-10-09T09:40:35.554Z,1011.4
2022-10-09T09:41:02.483Z,1011.4
2022-10-09T09:42:11.970Z,1011.4
2022-10-09T09:43:05.139Z,1011.4
2022-10-09T09:44:01.249Z,1011.4
2022-10-09T09:45:03.909Z,1011.4
2022-10-09T09:46:01.517Z,1011.4
2022-10-09T09:47:01.694Z,1011.4
2022-10-09T09:48:10.365Z,1011.4
2022-10-09T09:49:01.102Z,1011.3
2022-10-09T09:50:04.990Z,1011.3
2022-10-09T09:51:23.035Z,1011.3
2022-10-09T09:52:01.678Z,1011.4
2022-10-09T09:53:04.609Z,1011.4
2022-10-09T09:54:04.912Z,1011.3
2022-10-09T09:55:01.624Z,1011.3
2022-10-09T09:56:01.666Z,1011.3
2022-10-09T09:57:14.859Z,1011.2
2022-10-09T09:58:04.617Z,1011.3
2022-10-09T09:59:01.724Z,1011.3
2022-10-09T10:00:20.053Z,1011.3
2022-10-09T10:01:02.423Z,1011.2
2022-10-09T10:02:08.624Z,1011.2
2022-10-09T10:03:02.550Z,1011.2
2022-10-09T10:04:03.946Z,1011.2
2022-10-09T10:05:13.836Z,1011.2
2022-10-09T10:06:01.333Z,1011.2
2022-10-09T10:07:00.930Z,1011.2
2022-10-09T10:08:12.439Z,1011.2
2022-10-09T10:09:03.602Z,1011.2
2022-10-09T10:10:02.253Z,1011.2
2022-10-09T10:11:05.410Z,1011.2
2022-10-09T10:12:02.884Z,1011.2
2022-10-09T10:13:00.958Z,1011.2
2022-10-09T10:14:05.705Z,1011.2
2022-10-09T10:15:01.529Z,1011.2
2022-10-09T10:16:02.421Z,1011.2
2022-10-09T10:17:01.579Z,1011.2
2022-10-09T10:18:03.837Z,1011.3
2022-10-09T10:19:01.306Z,1011.3
2022-10-09T10:20:05.738Z,1011.3
2022-10-09T10:21:06.269Z,1011.3
2022-10-09T10:22:02.868Z,1011.3
2022-10-09T10:23:01.058Z,1011.3
2022-10-09T10:24:04.587Z,1011.3
2022-10-09T10:25:01.550Z,1011.3
2022-10-09T10:26:05.993Z,1011.3
2022-10-09T10:27:10.663Z,1011.3
2022-10-09T10:28:07.810Z,1011.3
2022-10-09T10:29:05.367Z,1011.3
2022-10-09T10:30:04.869Z,1011.3
2022-10-09T10:31:07.275Z,1011.4
2022-10-09T10:32:10.075Z,1011.4
2022-10-09T10:33:07.015Z,1011.4
2022-10-09T10:34:04.391Z,1011.3
2022-10-09T10:35:10.166Z,1011.4
2022-10-09T10:36:01.389Z,1011.4
2022-10-09T10:37:09.803Z,1011.4
2022-10-09T10:38:04.946Z,1011.4
2022-10-09T10:39:08.590Z,1011.4
2022-10-09T10:40:05.878Z,1011.4
2022-10-09T10:41:10.915Z,1011.4
2022-10-09T10:42:09.302Z,1011.4
2022-10-09T10:43:12.923Z,1011.4
2022-10-09T10:44:08.738Z,1011.5
2022-10-09T10:45:07.932Z,1011.5
2022-10-09T10:46:11.422Z,1011.5
2022-10-09T10:47:10.400Z,1011.5
2022-10-09T10:48:04.383Z,1011.5
2022-10-09T10:49:01.370Z,1011.5
2022-10-09T10:50:01.301Z,1011.5
2022-10-09T10:51:09.300Z,1011.6
2022-10-09T10:52:14.451Z,1011.6
2022-10-09T10:53:09.785Z,1011.6
2022-10-09T10:54:15.882Z,1011.6
2022-10-09T10:55:15.206Z,1011.6
2022-10-09T10:56:08.498Z,1011.6
2022-10-09T10:57:11.395Z,1011.6
2022-10-09T10:58:13.721Z,1011.6
2022-10-09T10:59:15.109Z,1011.6
2022-10-09T11:00:04.799Z,1011.7
2022-10-09T11:01:16.815Z,1011.7
2022-10-09T11:02:20.458Z,1011.7
2022-10-09T11:03:20.494Z,1011.7
2022-10-09T11:04:16.794Z,1011.7
2022-10-09T11:05:12.505Z,1011.7
2022-10-09T11:06:10.488Z,1011.7
2022-10-09T11:07:08.103Z,1011.7
2022-10-09T11:08:15.287Z,1011.7
2022-10-09T11:09:10.862Z,1011.7
2022-10-09T11:10:08.203Z,1011.7
2022-10-09T11:11:05.324Z,1011.8
2022-10-09T11:12:19.642Z,1011.8
2022-10-09T11:13:10.495Z,1011.8
2022-10-09T11:14:11.149Z,1011.8
2022-10-09T11:15:13.316Z,1011.8
2022-10-09T11:16:15.780Z,1011.8
2022-10-09T11:17:11.318Z,1011.8
2022-10-09T11:18:11.894Z,1011.9
2022-10-09T11:19:14.406Z,1011.8
2022-10-09T11:20:18.549Z,1011.8
2022-10-09T11:21:07.309Z,1011.9
2022-10-09T11:22:11.610Z,1011.9
2022-10-09T11:23:12.372Z,1011.9
2022-10-09T11:24:20.413Z,1011.9
2022-10-09T11:25:12.155Z,1011.9
2022-10-09T11:26:11.773Z,1011.9
2022-10-09T11:27:09.474Z,1011.9
2022-10-09T11:28:08.675Z,1011.9
2022-10-09T11:29:07.952Z,1011.9
2022-10-09T11:30:04.029Z,1011.9
2022-10-09T11:31:09.276Z,1011.9
2022-10-09T11:32:10.963Z,1011.9
2022-10-09T11:33:09.809Z,1011.9
2022-10-09T11:34:08.801Z,1011.9
2022-10-09T11:35:05.297Z,1011.9
2022-10-09T11:36:05.973Z,1011.9
2022-10-09T11:37:06.623Z,1011.9
2022-10-09T11:38:03.420Z,1011.9
2022-10-09T11:39:04.720Z,1011.9
2022-10-09T11:40:03.307Z,1012.0
2022-10-09T11:41:05.054Z,1011.9
2022-10-09T11:42:02.043Z,1012.0
2022-10-09T11:43:15.157Z,1012.0
2022-10-09T11:44:15.217Z,1012.0
2022-10-09T11:45:15.691Z,1011.9
2022-10-09T11:46:08.481Z,1012.0
2022-10-09T11:47:10.631Z,1012.0
2022-10-09T11:48:08.060Z,1012.0
2022-10-09T11:49:10.975Z,1012.0
2022-10-09T11:50:16.383Z,1012.1
2022-10-09T11:51:08.659Z,1012.0
2022-10-09T11:52:10.559Z,1012.0
2022-10-09T11:53:08.282Z,1012.0
2022-10-09T11:54:02.971Z,1012.0
2022-10-09T11:55:14.766Z,1012.1
2022-10-09T11:56:02.922Z,1012.1
2022-10-09T11:57:06.136Z,1012.1
2022-10-09T11:58:19.397Z,1012.1
2022-10-09T11:59:03.738Z,1012.1
2022-10-09T12:00:05.018Z,1012.1
2022-10-09T12:01:18.373Z,1012.1
2022-10-09T12:02:20.526Z,1012.1
2022-10-09T12:03:04.108Z,1012.2
2022-10-09T12:04:05.821Z,1012.1
2022-10-09T12:05:01.632Z,1012.1
2022-10-09T12:06:06.435Z,1012.2
2022-10-09T12:07:03.820Z,1012.1
2022-10-09T12:08:12.941Z,1012.2
2022-10-09T12:09:06.486Z,1012.2
2022-10-09T12:10:05.496Z,1012.2
2022-10-09T12:11:10.693Z,1012.2
2022-10-09T12:12:05.700Z,1012.2
2022-10-09T12:13:04.338Z,1012.3
2022-10-09T12:14:03.881Z,1012.2
2022-10-09T12:15:10.752Z,1012.3
2022-10-09T12:16:01.398Z,1012.3
2022-10-09T12:17:11.761Z,1012.3
2022-10-09T12:18:10.896Z,1012.3
2022-10-09T12:19:03.914Z,1012.4
2022-10-09T12:20:06.712Z,1012.3
2022-10-09T12:21:05.258Z,1012.3
2022-10-09T12:22:05.659Z,1012.3
2022-10-09T12:23:25.036Z,1012.4
2022-10-09T12:24:01.716Z,1012.4
2022-10-09T12:25:06.767Z,1012.4
2022-10-09T12:26:02.382Z,1012.4
2022-10-09T12:27:02.673Z,1012.4
2022-10-09T12:28:01.729Z,1012.4
2022-10-09T12:29:02.368Z,1012.4